Hither Plains, New York
Current Conditions -  °F | °C
As of 1:56 AM on Sunday 26 Oct 2014 (Local Time) from KGON Reporting Station
Overcast Overcast  
Wind Chill: 59°   Ceiling: 9000
Heat Index: 59°   Visibility: 10mi
Dew Point: 50°   Wind: 8mph
Humidity: 72%   Direction: 300°WNW
Pressure: 29.52"   Gusts: NA
Location:  41.0458°N, 71.9469°W
Report Text: KGON 260556Z AUTO 30007KT 10SM SCT070 BKN090 OVC110 15/10 A2952 RMK AO2 SLP995 T01500100 10161 20144 55014
Loading
Personal Weather Stations






























Interactive Weather Map
Tropical Storm Tracking
New forecast layout! Learn more

10-Day Weather Forecast

Advertisements
Track Severe Weather on mobile